Time;durP1;ratioP1;P1;durP2;ratioP2;P2;SDS_P1;SDS_P2;PMS_P1;PMS_P2;Temp;Humidity;BMP_temperature;BMP_pressure;BME280_temperature;BME280_humidity;BME280_pressure;Samples;Min_cycle;Max_cycle;Signal;HPM_P1;HPM_P2
2023/08/28 00:02:20;;;;;;;1.05;0.98;;;;;;;12.76;93.44;99600.09;5007317;28;20031;-59
2023/08/28 00:04:46;;;;;;;1.90;1.10;;;;;;;12.75;93.45;99598.38;5007382;28;20022;-60
2023/08/28 00:07:12;;;;;;;1.10;1.00;;;;;;;12.79;93.73;99599.16;5007087;28;20037;-60
2023/08/28 00:09:38;;;;;;;1.90;1.70;;;;;;;12.74;93.92;99596.69;5007949;28;20126;-60
2023/08/28 00:12:04;;;;;;;1.48;1.17;;;;;;;12.75;94.08;99598.38;5007636;28;20057;-60
2023/08/28 00:14:29;;;;;;;1.13;1.00;;;;;;;12.75;93.58;99593.16;5007740;28;20026;-59
2023/08/28 00:16:55;;;;;;;1.88;0.88;;;;;;;12.74;93.81;99586.25;5007233;28;20096;-61
2023/08/28 00:19:21;;;;;;;1.35;1.10;;;;;;;12.70;93.93;99582.06;5006004;28;20034;-60
2023/08/28 00:21:47;;;;;;;1.63;1.10;;;;;;;12.74;93.79;99581.06;5007385;28;20034;-61
2023/08/28 00:24:12;;;;;;;1.42;0.80;;;;;;;12.77;93.59;99589.63;5007541;28;20386;-61
2023/08/28 00:26:38;;;;;;;1.02;0.93;;;;;;;12.72;93.97;99580.25;5006957;28;20493;-60
2023/08/28 00:29:03;;;;;;;0.82;0.82;;;;;;;12.72;93.92;99580.25;5007523;28;20022;-60
2023/08/28 00:31:28;;;;;;;0.90;0.90;;;;;;;12.72;93.62;99575.03;5005688;28;20050;-60
2023/08/28 00:33:55;;;;;;;0.73;0.73;;;;;;;12.74;93.88;99583.66;5006571;28;20030;-61
2023/08/28 00:36:20;;;;;;;1.30;1.05;;;;;;;12.64;93.96;99576.13;5006567;28;20034;-60
2023/08/28 00:38:45;;;;;;;0.93;0.77;;;;;;;12.66;93.84;99578.69;5006982;28;20034;-61
2023/08/28 00:41:11;;;;;;;2.25;1.10;;;;;;;12.59;94.09;99572.81;5006990;28;20101;-59
2023/08/28 00:43:37;;;;;;;0.80;0.80;;;;;;;12.59;94.04;99575.41;5006983;28;20054;-60
2023/08/28 00:46:03;;;;;;;3.20;1.17;;;;;;;12.57;94.32;99572.00;5007103;28;20037;-59
2023/08/28 00:48:29;;;;;;;1.52;1.23;;;;;;;12.57;94.01;99566.78;5007132;28;20033;-60
2023/08/28 00:50:55;;;;;;;1.17;0.77;;;;;;;12.58;94.27;99563.31;5006900;28;20026;-60
2023/08/28 00:53:21;;;;;;;0.98;0.98;;;;;;;12.58;93.78;99560.69;5006724;28;20031;-60
2023/08/28 00:55:47;;;;;;;1.02;0.90;;;;;;;12.57;94.09;99556.38;5006513;28;20029;-60
2023/08/28 00:58:13;;;;;;;1.05;0.95;;;;;;;12.56;93.87;99552.06;5005276;28;20034;-61
2023/08/28 01:00:41;;;;;;;1.52;1.08;;;;;;;12.60;93.51;99560.66;5006372;28;20029;-60
2023/08/28 01:03:06;;;;;;;5.55;1.17;;;;;;;12.61;93.43;99560.59;5006358;28;20034;-59
2023/08/28 01:06:07;;;;;;;2.13;1.00;;;;;;;12.59;93.61;99567.59;5006138;28;20026;-60
2023/08/28 01:08:56;;;;;;;1.80;1.20;;;;;;;12.59;93.70;99561.53;5003696;28;20050;-60
2023/08/28 01:11:35;;;;;;;3.42;1.30;;;;;;;12.57;93.80;99574.59;5006534;28;20026;-62
2023/08/28 01:14:08;;;;;;;2.65;1.00;;;;;;;12.57;93.62;99573.75;5006739;28;20026;-59
2023/08/28 01:16:36;;;;;;;2.60;1.20;;;;;;;12.48;93.54;99556.66;5006143;28;20053;-61
2023/08/28 01:19:08;;;;;;;0.82;0.80;;;;;;;12.58;93.65;99568.50;5006288;28;20026;-61
2023/08/28 01:21:33;;;;;;;1.45;1.10;;;;;;;12.61;93.67;99572.75;5005805;28;20042;-60
2023/08/28 01:24:03;;;;;;;1.02;0.85;;;;;;;12.57;94.11;99569.38;5006534;28;20098;-61
2023/08/28 01:26:29;;;;;;;1.27;1.00;;;;;;;12.58;94.10;99568.50;5006378;28;20557;-60
2023/08/28 01:28:54;;;;;;;1.00;0.90;;;;;;;12.59;93.82;99567.59;5006088;28;20022;-60
2023/08/28 01:31:19;;;;;;;1.23;1.00;;;;;;;12.61;93.78;99571.03;5006155;28;20595;-62
2023/08/28 01:33:45;;;;;;;0.85;0.70;;;;;;;12.64;93.95;99572.66;5006061;28;20029;-60
2023/08/28 01:36:30;;;;;;;0.75;0.75;;;;;;;12.68;93.97;99566.47;5005707;28;20089;-60
2023/08/28 01:39:04;;;;;;;1.58;1.15;;;;;;;12.69;93.88;99564.72;5006000;28;20029;-60
2023/08/28 01:41:32;;;;;;;1.13;0.70;;;;;;;12.70;93.38;99572.47;5005753;28;20045;-60
2023/08/28 01:44:01;;;;;;;0.85;0.85;;;;;;;12.70;93.75;99569.03;5005134;28;20475;-61
2023/08/28 01:46:28;;;;;;;1.05;0.82;;;;;;;12.68;93.75;99574.31;5005903;28;20105;-61
2023/08/28 01:48:54;;;;;;;2.22;1.52;;;;;;;12.70;93.88;99563.84;5005937;28;20023;-61
2023/08/28 01:51:20;;;;;;;0.80;0.80;;;;;;;12.70;93.78;99569.03;5005896;28;20022;-62
2023/08/28 01:53:49;;;;;;;1.45;0.93;;;;;;;12.68;93.71;99565.63;5004339;28;20045;-61
2023/08/28 01:56:17;;;;;;;1.85;1.05;;;;;;;12.73;93.70;99574.16;5005662;28;20022;-61
2023/08/28 01:58:49;;;;;;;1.58;1.02;;;;;;;12.71;93.91;99574.19;5005611;28;20475;-62
2023/08/28 02:01:14;;;;;;;1.63;1.05;;;;;;;12.70;93.91;99571.66;5005458;28;20061;-62
2023/08/28 02:03:40;;;;;;;2.38;1.83;;;;;;;12.71;93.96;99573.34;5005552;28;20026;-62
2023/08/28 02:06:06;;;;;;;1.02;0.93;;;;;;;12.71;93.71;99566.38;5005623;28;20033;-60
2023/08/28 02:08:31;;;;;;;1.35;1.25;;;;;;;12.70;93.90;99562.06;5005450;28;20022;-63
2023/08/28 02:10:57;;;;;;;1.90;1.13;;;;;;;12.76;93.76;99568.84;5005570;28;20081;-61
2023/08/28 02:13:22;;;;;;;1.45;1.30;;;;;;;12.77;93.78;99571.41;5005301;28;20041;-61
2023/08/28 02:15:48;;;;;;;0.82;0.80;;;;;;;12.81;93.75;99569.53;5005579;28;20039;-61
2023/08/28 02:18:13;;;;;;;1.40;0.90;;;;;;;12.81;93.76;99568.69;5005202;28;20022;-62
2023/08/28 02:20:38;;;;;;;1.33;0.90;;;;;;;12.81;93.66;99564.31;5004303;28;20384;-62
2023/08/28 02:23:04;;;;;;;1.80;1.27;;;;;;;12.80;93.73;99567.84;5005424;28;20046;-61
2023/08/28 02:25:29;;;;;;;0.82;0.70;;;;;;;12.77;93.87;99563.59;5005381;28;20049;-62
2023/08/28 02:27:54;;;;;;;1.20;0.93;;;;;;;12.75;93.73;99561.91;5005420;28;20078;-62
2023/08/28 02:30:20;;;;;;;1.35;1.25;;;;;;;12.74;93.91;99560.22;5005814;28;20097;-62
2023/08/28 02:35:31;;;;;;;1.17;1.08;;;;;;;12.71;94.28;99557.72;5005484;28;20319;-62
2023/08/28 02:37:57;;;;;;;2.88;1.48;;;;;;;12.71;94.19;99549.91;5005329;28;20086;-61
2023/08/28 02:40:23;;;;;;;1.23;0.95;;;;;;;12.71;94.41;99555.09;5005338;28;20029;-61
2023/08/28 02:42:48;;;;;;;1.70;1.08;;;;;;;12.65;94.31;99556.16;5005049;28;20026;-61
2023/08/28 02:45:14;;;;;;;1.55;1.40;;;;;;;12.66;94.49;99559.59;5005146;28;20459;-61
2023/08/28 02:47:39;;;;;;;1.30;0.88;;;;;;;12.62;94.82;99558.88;5005185;28;20103;-61
2023/08/28 02:50:05;;;;;;;0.85;0.70;;;;;;;12.59;94.83;99556.31;5005077;28;20515;-61
2023/08/28 02:52:30;;;;;;;0.85;0.85;;;;;;;12.50;95.27;99557.47;5005170;28;20030;-60
2023/08/28 02:54:56;;;;;;;1.20;0.60;;;;;;;12.56;95.34;99570.31;5005204;28;20032;-62
2023/08/28 02:57:21;;;;;;;1.52;1.15;;;;;;;12.47;95.50;99558.44;5008928;28;20077;-61
2023/08/28 02:59:46;;;;;;;0.30;0.30;;;;;;;12.49;95.61;99560.97;5009043;28;20437;-62
2023/08/28 03:02:12;;;;;;;1.08;0.98;;;;;;;12.49;95.38;99554.00;5008813;28;20022;-62
2023/08/28 03:04:37;;;;;;;1.30;0.98;;;;;;;12.51;95.49;99556.56;5008672;28;20061;-61
2023/08/28 03:07:03;;;;;;;0.73;0.73;;;;;;;12.45;95.62;99551.53;5008624;28;20030;-62
2023/08/28 03:09:31;;;;;;;1.40;1.30;;;;;;;12.41;95.88;99550.81;5008637;28;20124;-61
2023/08/28 03:11:57;;;;;;;1.38;1.00;;;;;;;12.40;95.85;99541.28;5008763;28;20026;-62
2023/08/28 03:14:22;;;;;;;1.83;0.98;;;;;;;12.41;96.03;99552.53;5008568;28;20125;-62
2023/08/28 03:16:47;;;;;;;1.63;1.05;;;;;;;12.43;95.78;99548.16;5008415;28;20117;-62
2023/08/28 03:19:13;;;;;;;0.70;0.70;;;;;;;12.41;95.75;99542.13;5008399;28;20125;-62
2023/08/28 03:21:40;;;;;;;1.48;1.08;;;;;;;12.43;95.62;99542.94;5008006;28;20037;-61
2023/08/28 03:24:06;;;;;;;1.05;0.80;;;;;;;12.39;95.71;99534.38;5008775;28;20025;-61
2023/08/28 03:26:32;;;;;;;0.63;0.63;;;;;;;12.39;96.14;99543.03;5008635;28;20019;-61
2023/08/28 03:28:57;;;;;;;3.45;0.65;;;;;;;12.36;95.96;99537.06;5008205;28;20102;-62
2023/08/28 03:31:23;;;;;;;0.60;0.60;;;;;;;12.38;96.11;99548.28;5007139;28;20026;-61
2023/08/28 03:33:48;;;;;;;1.10;0.95;;;;;;;12.36;95.98;99543.09;5008398;28;20030;-63
2023/08/28 03:36:14;;;;;;;1.33;1.02;;;;;;;12.36;95.94;99548.31;5007818;28;20034;-61
2023/08/28 03:38:39;;;;;;;1.05;0.98;;;;;;;12.28;95.98;99534.69;5008407;28;20089;-62
2023/08/28 03:41:04;;;;;;;0.80;0.80;;;;;;;12.31;96.21;99537.19;5008127;28;20105;-61
2023/08/28 03:43:30;;;;;;;3.03;1.60;;;;;;;12.26;95.98;99531.28;5008237;28;20386;-62
2023/08/28 03:45:55;;;;;;;1.60;0.90;;;;;;;12.25;95.93;99530.41;5008114;28;20022;-61
2023/08/28 03:48:21;;;;;;;4.93;0.90;;;;;;;12.21;95.89;99538.34;5008281;28;20022;-60
2023/08/28 03:50:46;;;;;;;0.60;0.60;;;;;;;12.25;95.64;99542.59;5007715;28;20033;-61
2023/08/28 03:53:11;;;;;;;0.60;0.60;;;;;;;12.23;95.73;99540.03;5007745;28;20090;-61
2023/08/28 03:55:37;;;;;;;1.50;1.13;;;;;;;12.20;95.94;99545.34;5007853;28;20098;-60
2023/08/28 03:58:04;;;;;;;1.20;0.98;;;;;;;12.14;96.28;99537.72;5007698;28;20478;-60
2023/08/28 04:00:31;;;;;;;1.00;0.90;;;;;;;12.12;96.27;99535.13;5007811;28;20030;-62
2023/08/28 04:02:56;;;;;;;0.73;0.70;;;;;;;12.13;96.46;99538.59;5007413;28;20080;-61
2023/08/28 04:05:22;;;;;;;0.90;0.75;;;;;;;12.16;96.41;99538.50;5007441;28;20117;-61
2023/08/28 04:07:49;;;;;;;0.85;0.85;;;;;;;12.22;96.31;99546.13;5006252;28;20032;-62
2023/08/28 04:10:14;;;;;;;1.10;1.00;;;;;;;12.24;96.48;99540.88;5007610;28;20034;-62
2023/08/28 04:12:40;;;;;;;0.90;0.75;;;;;;;12.23;96.67;99541.78;5007476;28;20093;-61
2023/08/28 04:15:09;;;;;;;2.10;1.17;;;;;;;12.25;96.92;99540.81;5007393;28;20042;-62
2023/08/28 04:17:35;;;;;;;1.58;1.27;;;;;;;12.25;96.47;99530.41;5007469;28;20470;-61
2023/08/28 04:20:12;;;;;;;0.65;0.65;;;;;;;12.33;96.65;99535.38;5007460;28;20086;-61
2023/08/28 04:22:40;;;;;;;1.25;1.10;;;;;;;12.31;96.70;99536.34;5007224;28;20034;-60
2023/08/28 04:25:07;;;;;;;1.73;1.30;;;;;;;12.30;96.47;99526.84;5007642;28;20026;-61
2023/08/28 04:27:32;;;;;;;1.27;1.13;;;;;;;12.35;96.24;99530.13;5005787;28;20032;-62
2023/08/28 04:29:58;;;;;;;0.80;0.80;;;;;;;12.36;96.55;99542.28;5007012;28;20045;-61
2023/08/28 04:32:23;;;;;;;1.20;1.10;;;;;;;12.40;96.40;99538.66;5006910;28;20022;-61
2023/08/28 04:34:48;;;;;;;0.93;0.82;;;;;;;12.42;96.05;99531.66;5007157;28;20049;-62
2023/08/28 04:37:14;;;;;;;0.90;0.90;;;;;;;12.42;96.13;99539.47;5006878;28;20026;-61
2023/08/28 04:39:39;;;;;;;1.75;1.25;;;;;;;12.46;96.06;99541.09;5007064;28;20026;-62
2023/08/28 04:42:05;;;;;;;1.38;0.80;;;;;;;12.48;95.66;99539.28;5007213;28;20022;-61
2023/08/28 04:44:30;;;;;;;0.80;0.80;;;;;;;12.50;95.49;99536.66;5007071;28;20045;-61
2023/08/28 04:46:58;;;;;;;0.60;0.60;;;;;;;12.49;95.31;99547.97;5006885;28;20387;-62
2023/08/28 04:49:23;;;;;;;0.60;0.60;;;;;;;12.56;95.04;99546.88;5006666;28;20471;-61
2023/08/28 04:51:49;;;;;;;0.98;0.93;;;;;;;12.59;94.71;99546.78;5006754;28;20030;-61
2023/08/28 04:54:14;;;;;;;1.02;0.73;;;;;;;12.54;94.85;99548.66;5006696;28;20030;-61
2023/08/28 04:56:40;;;;;;;10.32;1.25;;;;;;;12.49;95.18;99546.19;5006568;28;20026;-62
2023/08/28 04:59:05;;;;;;;1.52;1.30;;;;;;;12.50;95.17;99547.06;5006724;28;20019;-61
2023/08/28 05:01:31;;;;;;;1.00;1.00;;;;;;;12.51;95.30;99553.97;5006310;28;20026;-61
2023/08/28 05:03:57;;;;;;;2.92;1.08;;;;;;;12.51;95.55;99551.34;5006657;28;20029;-61
2023/08/28 05:06:22;;;;;;;0.75;0.73;;;;;;;12.51;95.33;99554.81;5006138;28;20132;-61
2023/08/28 05:08:48;;;;;;;1.50;1.23;;;;;;;12.56;95.35;99544.25;5006475;28;20019;-61
2023/08/28 05:11:13;;;;;;;1.77;1.23;;;;;;;12.57;95.38;99558.97;5006749;28;20053;-61
2023/08/28 05:13:39;;;;;;;0.93;0.93;;;;;;;12.57;95.31;99556.38;5006315;28;20109;-62
2023/08/28 05:16:04;;;;;;;1.00;0.93;;;;;;;12.60;95.34;99553.66;5005966;28;20047;-61
2023/08/28 05:18:29;;;;;;;1.63;1.15;;;;;;;12.60;94.97;99558.88;5006208;28;20018;-62
2023/08/28 05:20:55;;;;;;;1.45;1.10;;;;;;;12.63;94.96;99563.16;5020948;28;20386;-61
2023/08/28 05:23:25;;;;;;;0.85;0.85;;;;;;;12.63;95.24;99564.03;5006160;28;20080;-61
2023/08/28 05:25:52;;;;;;;1.60;0.93;;;;;;;12.70;95.28;99563.84;5006068;28;20022;-61
2023/08/28 05:28:17;;;;;;;3.70;1.00;;;;;;;12.71;94.93;99565.53;5006063;28;20018;-61
2023/08/28 05:30:43;;;;;;;0.90;0.80;;;;;;;12.74;95.13;99570.63;5005725;28;20094;-61
2023/08/28 05:33:08;;;;;;;1.15;0.93;;;;;;;12.76;95.15;99580.09;5005965;28;20110;-61
2023/08/28 05:35:33;;;;;;;0.77;0.77;;;;;;;12.79;94.57;99584.38;5005702;28;20026;-61
2023/08/28 05:37:59;;;;;;;1.90;1.23;;;;;;;12.77;94.23;99580.97;5005484;28;20134;-61
2023/08/28 05:40:24;;;;;;;1.35;1.25;;;;;;;12.77;94.19;99587.03;5005495;28;20030;-61
2023/08/28 05:42:50;;;;;;;0.90;0.80;;;;;;;12.74;93.84;99581.06;5005889;28;20052;-61
2023/08/28 05:45:15;;;;;;;1.20;1.05;;;;;;;12.73;93.97;99582.78;5005638;28;20061;-61
2023/08/28 05:47:41;;;;;;;2.45;1.25;;;;;;;12.76;93.69;99587.09;5005977;28;20022;-62
2023/08/28 05:50:07;;;;;;;0.85;0.70;;;;;;;12.72;94.30;99586.31;5005360;28;20205;-62
2023/08/28 05:52:32;;;;;;;1.08;0.98;;;;;;;12.67;94.69;99566.53;5004231;28;20026;-60
2023/08/28 05:54:58;;;;;;;0.68;0.68;;;;;;;12.79;95.34;99568.75;5005941;28;20037;-61
2023/08/28 05:57:23;;;;;;;1.55;1.35;;;;;;;12.87;94.98;99569.38;5005701;28;20077;-62
2023/08/28 05:59:52;;;;;;;7.28;1.20;;;;;;;12.93;94.92;99564.84;5005808;28;20045;-62
2023/08/28 06:02:17;;;;;;;1.15;0.93;;;;;;;13.08;95.16;99564.34;5005278;28;20363;-61
2023/08/28 06:04:49;;;;;;;1.00;0.82;;;;;;;13.19;94.89;99563.16;5005411;28;20566;-61
2023/08/28 06:07:14;;;;;;;1.65;1.15;;;;;;;13.25;94.33;99575.97;5005190;28;20038;-62
2023/08/28 06:09:42;;;;;;;0.90;0.77;;;;;;;13.29;94.16;99561.94;5003962;28;20022;-62
2023/08/28 06:12:07;;;;;;;1.48;1.15;;;;;;;13.33;94.38;99552.25;5005657;28;20029;-62
2023/08/28 06:14:33;;;;;;;1.92;1.05;;;;;;;13.42;94.42;99562.38;5005423;28;20034;-62
2023/08/28 06:16:59;;;;;;;1.65;1.40;;;;;;;13.46;94.27;99557.91;5005273;28;20046;-62
2023/08/28 06:19:25;;;;;;;1.15;1.05;;;;;;;13.61;94.41;99559.19;5005327;28;20463;-61
2023/08/28 06:21:50;;;;;;;1.05;0.95;;;;;;;13.74;94.13;99557.84;5020057;28;20026;-60
2023/08/28 06:24:16;;;;;;;1.20;1.10;;;;;;;13.80;93.93;99556.75;5005578;28;20026;-62
2023/08/28 06:26:42;;;;;;;0.75;0.75;;;;;;;13.92;93.63;99557.22;5004130;28;20410;-61
2023/08/28 06:29:08;;;;;;;1.63;1.38;;;;;;;14.10;93.64;99555.72;5005460;28;20030;-61
2023/08/28 06:31:33;;;;;;;1.25;1.15;;;;;;;14.44;94.95;99558.84;5008554;28;20109;-61
2023/08/28 06:33:59;;;;;;;1.67;1.08;;;;;;;15.09;96.92;99563.28;5009187;28;20026;-61
2023/08/28 06:36:24;;;;;;;1.27;1.15;;;;;;;15.93;100.00;99553.66;5008913;28;20022;-61
2023/08/28 06:38:52;;;;;;;3.47;1.75;;;;;;;16.90;100.00;99555.34;5009140;28;20022;-61
2023/08/28 06:41:18;;;;;;;0.70;0.70;;;;;;;18.05;100.00;99551.34;5009287;28;20161;-62
2023/08/28 06:43:43;;;;;;;3.42;1.70;;;;;;;18.87;96.74;99545.19;5009232;28;20026;-61
2023/08/28 06:46:08;;;;;;;1.70;1.15;;;;;;;19.62;93.57;99542.69;5009104;28;20022;-62
2023/08/28 06:48:34;;;;;;;2.03;1.10;;;;;;;20.59;91.32;99540.25;5009295;28;20026;-61
2023/08/28 06:50:59;;;;;;;1.60;1.35;;;;;;;21.58;91.79;99539.94;5009205;28;20030;-61
2023/08/28 06:53:25;;;;;;;0.85;0.80;;;;;;;22.14;91.64;99528.19;5008861;28;20018;-62
2023/08/28 06:55:51;;;;;;;1.60;0.90;;;;;;;22.67;90.93;99547.41;5008800;28;20069;-62
2023/08/28 06:58:16;;;;;;;1.30;0.80;;;;;;;23.05;90.54;99553.47;5008759;28;20113;-62
2023/08/28 07:00:41;;;;;;;0.77;0.77;;;;;;;23.60;90.10;99549.41;5008885;28;20080;-62
2023/08/28 07:03:07;;;;;;;1.80;1.27;;;;;;;23.76;88.49;99541.97;5023605;28;20061;-62
2023/08/28 07:05:32;;;;;;;0.93;0.80;;;;;;;23.86;87.79;99555.34;5008691;28;20218;-62
2023/08/28 07:07:58;;;;;;;2.03;1.00;;;;;;;23.71;84.67;99551.22;5008092;28;20030;-62
2023/08/28 07:10:24;;;;;;;0.70;0.60;;;;;;;23.33;84.46;99550.53;5008366;28;20025;-62
2023/08/28 07:12:49;;;;;;;1.38;0.93;;;;;;;23.33;79.71;99553.19;5006843;28;20065;-61
2023/08/28 07:15:17;;;;;;;0.55;0.43;;;;;;;23.50;81.79;99563.38;5008256;28;20077;-61
2023/08/28 07:17:43;;;;;;;0.50;0.50;;;;;;;23.41;82.27;99553.47;5008108;28;20233;-62
2023/08/28 07:20:09;;;;;;;12.25;0.88;;;;;;;23.54;79.58;99558.69;5008348;28;20026;-62
2023/08/28 07:22:34;;;;;;;0.75;0.60;;;;;;;23.71;75.23;99549.41;5007259;28;20030;-62
2023/08/28 07:25:00;;;;;;;0.60;0.60;;;;;;;24.09;75.04;99549.19;5008424;28;20094;-62
2023/08/28 07:27:25;;;;;;;0.45;0.45;;;;;;;24.06;72.93;99557.38;5008255;28;20074;-62
2023/08/28 07:29:51;;;;;;;0.63;0.57;;;;;;;24.41;74.79;99556.38;5008446;28;20022;-62
2023/08/28 07:32:16;;;;;;;0.60;0.47;;;;;;;24.75;71.01;99539.53;5008408;28;20773;-61
2023/08/28 07:34:41;;;;;;;0.60;0.50;;;;;;;24.74;64.46;99545.81;5008384;28;20466;-62
2023/08/28 07:37:07;;;;;;;0.57;0.50;;;;;;;24.37;63.72;99554.94;5008001;28;20046;-62
2023/08/28 07:39:32;;;;;;;0.40;0.30;;;;;;;24.16;65.24;99558.34;5007712;28;20018;-61
2023/08/28 07:41:58;;;;;;;0.57;0.40;;;;;;;23.82;63.84;99559.19;5006760;28;20030;-62
2023/08/28 07:44:23;;;;;;;0.50;0.50;;;;;;;23.54;64.43;99563.13;5008236;28;20061;-62
2023/08/28 07:46:49;;;;;;;3.95;0.90;;;;;;;23.43;62.82;99566.59;5008186;28;20372;-62
2023/08/28 07:49:14;;;;;;;0.63;0.60;;;;;;;23.59;62.39;99572.41;5007957;28;20046;-62
2023/08/28 07:51:40;;;;;;;0.47;0.40;;;;;;;23.71;60.67;99556.50;5007745;28;20032;-62
2023/08/28 07:54:05;;;;;;;0.20;0.20;;;;;;;24.13;61.27;99569.19;5007860;28;20018;-62
2023/08/28 07:56:30;;;;;;;0.50;0.50;;;;;;;24.76;60.75;99557.97;5007881;28;20050;-61
2023/08/28 07:58:56;;;;;;;1.10;0.63;;;;;;;25.29;59.25;99571.41;5007733;28;20053;-63
2023/08/28 08:01:21;;;;;;;0.30;0.30;;;;;;;25.78;58.58;99570.91;5007764;28;20026;-62
2023/08/28 08:03:47;;;;;;;0.38;0.32;;;;;;;26.26;59.64;99570.34;5007571;28;20050;-62
2023/08/28 08:06:13;;;;;;;1.17;0.60;;;;;;;26.60;59.65;99578.00;5007728;28;20165;-62
2023/08/28 08:08:38;;;;;;;1.00;0.50;;;;;;;26.93;59.34;99573.28;5007343;28;20022;-62
2023/08/28 08:11:04;;;;;;;0.30;0.30;;;;;;;27.14;58.27;99577.63;5007335;28;20026;-61
2023/08/28 08:13:29;;;;;;;1.13;0.52;;;;;;;27.26;55.56;99586.31;5007303;28;20362;-61
2023/08/28 08:15:54;;;;;;;0.30;0.30;;;;;;;27.30;50.69;99586.91;5007045;28;20042;-62
2023/08/28 08:18:20;;;;;;;0.43;0.30;;;;;;;27.15;50.19;99590.00;5007239;28;20031;-62
2023/08/28 08:20:45;;;;;;;0.52;0.50;;;;;;;26.75;51.74;99582.94;5007343;28;20085;-62
2023/08/28 08:23:10;;;;;;;0.40;0.40;;;;;;;26.40;50.10;99580.66;5007133;28;20037;-61
2023/08/28 08:25:36;;;;;;;1.00;0.50;;;;;;;26.34;50.78;99586.53;5007120;28;20022;-61
2023/08/28 08:28:02;;;;;;;2.45;0.68;;;;;;;26.27;49.96;99588.00;5007402;28;20018;-62
2023/08/28 08:30:28;;;;;;;1.48;0.73;;;;;;;26.20;49.78;99591.19;5007030;28;20032;-61
2023/08/28 08:32:53;;;;;;;0.38;0.38;;;;;;;26.40;47.47;99593.97;5006934;28;20034;-62
2023/08/28 08:35:19;;;;;;;0.77;0.57;;;;;;;26.01;45.99;99580.50;5007422;28;20033;-61
2023/08/28 08:37:46;;;;;;;0.20;0.20;;;;;;;25.92;46.51;99598.94;5021760;28;20022;-61
2023/08/28 08:40:13;;;;;;;0.60;0.43;;;;;;;26.08;47.23;99597.59;5006857;28;20497;-62
2023/08/28 08:42:39;;;;;;;0.50;0.40;;;;;;;26.59;46.67;99594.97;5007069;28;20090;-61
2023/08/28 08:45:05;;;;;;;0.43;0.43;;;;;;;26.90;45.61;99589.53;5006922;28;20097;-62
2023/08/28 08:47:31;;;;;;;1.52;0.73;;;;;;;26.97;45.05;99601.31;5006967;28;20058;-62
2023/08/28 08:50:01;;;;;;;0.45;0.40;;;;;;;26.90;44.56;99607.34;5006740;28;20015;-62
2023/08/28 08:52:28;;;;;;;0.90;0.77;;;;;;;27.09;45.43;99612.69;5006705;28;20061;-61
2023/08/28 08:54:59;;;;;;;1.25;0.60;;;;;;;27.50;43.09;99613.50;5006335;28;20034;-61
2023/08/28 08:57:39;;;;;;;0.50;0.40;;;;;;;27.45;40.90;99614.78;5006958;28;20030;-61
2023/08/28 09:00:11;;;;;;;0.40;0.32;;;;;;;27.70;42.04;99617.84;5006730;28;20061;-62
2023/08/28 09:02:38;;;;;;;0.75;0.52;;;;;;;27.96;42.93;99622.53;5006510;28;20041;-62
2023/08/28 09:05:06;;;;;;;0.30;0.30;;;;;;;28.18;41.35;99619.66;5006370;28;20026;-62
2023/08/28 09:07:32;;;;;;;0.43;0.40;;;;;;;28.30;38.36;99620.28;5006243;28;20406;-63
2023/08/28 09:09:59;;;;;;;0.60;0.52;;;;;;;28.01;38.21;99618.56;5006723;28;20022;-62
2023/08/28 09:12:24;;;;;;;0.45;0.30;;;;;;;27.96;38.02;99609.19;5006677;28;20371;-63
2023/08/28 09:14:49;;;;;;;0.30;0.30;;;;;;;28.00;39.24;99608.91;5006090;28;20046;-61
2023/08/28 09:17:15;;;;;;;0.40;0.30;;;;;;;28.32;39.26;99611.16;5006553;28;20072;-62
2023/08/28 09:19:43;;;;;;;0.28;0.28;;;;;;;28.41;38.72;99600.59;5006080;28;20031;-62
2023/08/28 09:22:09;;;;;;;0.80;0.47;;;;;;;28.28;38.27;99611.56;5006056;28;20034;-61
2023/08/28 09:24:36;;;;;;;1.10;0.40;;;;;;;28.18;38.56;99611.66;5006158;28;20570;-61
2023/08/28 09:27:02;;;;;;;0.47;0.40;;;;;;;28.18;39.65;99615.13;5005848;28;20475;-62
2023/08/28 09:29:28;;;;;;;0.65;0.50;;;;;;;28.32;39.12;99607.66;5005917;28;20034;-61
2023/08/28 09:32:02;;;;;;;0.40;0.40;;;;;;;28.48;38.27;99612.34;5004943;28;20062;-62
2023/08/28 09:34:39;;;;;;;1.08;0.50;;;;;;;28.30;38.81;99614.94;5005905;28;20105;-62
2023/08/28 09:37:09;;;;;;;0.65;0.63;;;;;;;28.65;39.25;99612.53;5005861;28;20033;-62
2023/08/28 09:39:37;;;;;;;3.53;0.60;;;;;;;28.31;38.39;99605.94;5006146;28;20084;-62
2023/08/28 09:42:05;;;;;;;0.60;0.40;;;;;;;27.32;38.59;99603.56;5005874;28;20022;-62
2023/08/28 09:44:34;;;;;;;3.05;0.77;;;;;;;26.65;40.05;99599.75;5005708;28;20026;-63
2023/08/28 09:47:00;;;;;;;1.08;0.60;;;;;;;25.92;41.26;99612.22;5005737;28;20026;-63
2023/08/28 09:49:25;;;;;;;1.00;0.40;;;;;;;25.64;42.34;99595.97;5005703;28;20029;-61
2023/08/28 09:51:51;;;;;;;1.35;0.63;;;;;;;25.54;43.27;99611.00;5005362;28;20028;-62
2023/08/28 09:54:17;;;;;;;0.50;0.50;;;;;;;25.29;43.96;99610.44;5005430;28;20037;-61
2023/08/28 09:56:43;;;;;;;0.98;0.63;;;;;;;24.82;45.40;99622.16;5005733;28;20045;-60
2023/08/28 09:59:13;;;;;;;1.92;0.52;;;;;;;24.18;45.91;99619.22;5005725;28;20099;-60
2023/08/28 10:01:39;;;;;;;0.40;0.40;;;;;;;23.25;47.21;99617.31;5005755;28;20037;-61
2023/08/28 10:04:10;;;;;;;0.65;0.40;;;;;;;22.22;48.30;99622.81;5005376;28;20073;-61
2023/08/28 10:06:40;;;;;;;2.05;0.65;;;;;;;21.34;49.56;99621.69;5004931;28;20072;-61
2023/08/28 10:09:12;;;;;;;1.63;0.40;;;;;;;20.58;50.74;99620.31;5005447;28;20046;-61
2023/08/28 10:11:39;;;;;;;0.90;0.55;;;;;;;19.99;52.61;99622.09;5005916;28;20030;-61
2023/08/28 10:14:06;;;;;;;1.95;0.70;;;;;;;19.50;55.30;99628.50;5005855;28;20037;-63
2023/08/28 10:16:36;;;;;;;0.70;0.52;;;;;;;18.99;57.37;99624.34;5005610;28;20052;-62
2023/08/28 10:19:17;;;;;;;0.82;0.70;;;;;;;18.63;57.94;99618.41;5005514;28;20054;-62
2023/08/28 10:21:44;;;;;;;0.50;0.50;;;;;;;18.45;57.47;99619.31;5005553;28;20030;-61
2023/08/28 10:24:12;;;;;;;0.43;0.43;;;;;;;18.15;58.88;99617.41;5005738;28;20030;-61
2023/08/28 10:26:38;;;;;;;0.45;0.45;;;;;;;17.99;58.20;99611.25;5005661;28;20034;-61
2023/08/28 10:29:05;;;;;;;0.40;0.40;;;;;;;17.78;60.00;99617.53;5005422;28;20026;-62
2023/08/28 10:31:31;;;;;;;0.70;0.60;;;;;;;17.63;62.83;99627.03;5004282;28;20033;-63
2023/08/28 10:33:58;;;;;;;1.85;0.65;;;;;;;17.64;62.57;99623.47;5005482;28;20046;-62
2023/08/28 10:36:25;;;;;;;3.17;0.90;;;;;;;17.65;63.30;99627.78;5005293;28;20034;-63
2023/08/28 10:38:52;;;;;;;0.90;0.70;;;;;;;17.78;64.80;99637.69;5005267;28;20026;-62
2023/08/28 10:41:18;;;;;;;1.27;0.57;;;;;;;17.90;65.66;99644.06;5005264;28;20053;-62
2023/08/28 10:43:45;;;;;;;1.50;0.50;;;;;;;18.09;65.22;99649.22;5005426;28;20061;-61
2023/08/28 10:46:11;;;;;;;1.05;0.52;;;;;;;18.18;66.24;99640.03;5005544;28;20029;-63
2023/08/28 10:48:39;;;;;;;0.80;0.60;;;;;;;18.49;66.62;99646.28;5004730;28;20057;-62
2023/08/28 10:51:10;;;;;;;1.63;0.82;;;;;;;18.83;66.30;99654.94;5005014;28;20027;-61
2023/08/28 10:53:35;;;;;;;1.13;0.82;;;;;;;19.21;65.35;99647.69;5004892;28;20033;-61
2023/08/28 10:56:01;;;;;;;1.13;0.82;;;;;;;19.27;65.50;99636.78;5004861;28;20026;-60
2023/08/28 10:58:30;;;;;;;1.58;0.90;;;;;;;19.50;65.58;99657.47;5005251;28;20022;-61
2023/08/28 11:01:16;;;;;;;1.17;0.82;;;;;;;19.79;65.30;99652.28;5005376;28;20193;-61
2023/08/28 11:03:50;;;;;;;0.88;0.68;;;;;;;20.21;64.40;99660.34;5005040;28;20027;-61
2023/08/28 11:06:34;;;;;;;0.90;0.70;;;;;;;20.92;63.80;99659.53;5005296;28;20022;-61
2023/08/28 11:09:26;;;;;;;1.30;0.68;;;;;;;21.58;60.97;99661.44;5005008;28;20037;-60
2023/08/28 11:11:51;;;;;;;0.68;0.60;;;;;;;21.61;60.94;99663.91;5005319;28;20061;-61
2023/08/28 11:14:17;;;;;;;0.85;0.45;;;;;;;22.11;60.19;99670.31;5005258;28;20030;-61
2023/08/28 11:16:43;;;;;;;1.40;0.40;;;;;;;23.12;57.64;99665.88;5006143;28;20120;-61
2023/08/28 11:19:08;;;;;;;1.05;0.50;;;;;;;24.06;55.14;99664.25;5008598;28;20026;-61
2023/08/28 11:21:44;;;;;;;0.95;0.55;;;;;;;24.86;54.06;99660.72;5008060;28;20044;-61
2023/08/28 11:24:26;;;;;;;0.60;0.43;;;;;;;25.93;51.32;99656.44;5008689;28;20046;-61
2023/08/28 11:26:54;;;;;;;0.43;0.43;;;;;;;25.94;49.81;99652.81;5008457;28;20022;-61
2023/08/28 11:29:27;;;;;;;0.93;0.40;;;;;;;24.72;50.27;99665.34;5008590;28;20034;-61
2023/08/28 11:31:52;;;;;;;0.35;0.35;;;;;;;23.89;53.38;99669.06;5008508;28;20086;-61
2023/08/28 11:34:18;;;;;;;1.17;0.40;;;;;;;23.15;53.62;99675.38;5008070;28;20041;-61
2023/08/28 11:36:45;;;;;;;0.95;0.52;;;;;;;22.53;54.37;99684.13;5007838;28;20037;-61